createdAt,value
2024-02-14T00:00:38.393Z,5.04
2024-02-14T00:03:30.272Z,5.06
2024-02-14T00:06:02.268Z,5.04
2024-02-14T00:08:34.228Z,5.05
2024-02-14T00:11:06.308Z,5.05
2024-02-14T00:13:36.659Z,5.05
2024-02-14T00:16:10.808Z,5.03
2024-02-14T00:18:42.831Z,5.06
2024-02-14T00:21:14.986Z,5.06
2024-02-14T00:23:45.828Z,5.06
2024-02-14T00:26:16.650Z,5.05
2024-02-14T00:28:46.994Z,5.03
2024-02-14T00:31:18.923Z,5.02
2024-02-14T00:33:49.431Z,5.02
2024-02-14T00:36:21.616Z,4.99
2024-02-14T00:38:52.716Z,4.98
2024-02-14T00:41:24.959Z,4.98
2024-02-14T00:43:55.299Z,4.97
2024-02-14T00:46:27.299Z,4.92
2024-02-14T00:49:00.894Z,4.91
2024-02-14T00:51:33.009Z,4.92
2024-02-14T00:54:05.056Z,4.92
2024-02-14T00:56:37.320Z,4.90
2024-02-14T00:59:09.822Z,4.92
2024-02-14T01:01:42.350Z,4.91
2024-02-14T01:04:14.341Z,4.90
2024-02-14T01:06:46.391Z,4.86
2024-02-14T01:09:18.507Z,4.85
2024-02-14T01:11:50.576Z,4.84
2024-02-14T01:14:23.655Z,4.83
2024-02-14T01:16:56.059Z,4.86
2024-02-14T01:19:29.876Z,4.89
2024-02-14T01:22:01.848Z,4.91
2024-02-14T01:24:33.642Z,4.92
2024-02-14T01:27:06.840Z,4.91
2024-02-14T01:29:38.800Z,4.91
2024-02-14T01:32:10.909Z,4.90
2024-02-14T01:34:43.783Z,4.86
2024-02-14T01:37:15.730Z,4.84
2024-02-14T01:39:45.978Z,4.83
2024-02-14T01:42:17.895Z,4.81
2024-02-14T01:44:48.181Z,4.81
2024-02-14T01:47:21.109Z,4.79
2024-02-14T01:49:53.144Z,4.79
2024-02-14T01:52:25.086Z,4.79
2024-02-14T01:54:57.328Z,4.78
2024-02-14T01:57:30.011Z,4.75
2024-02-14T02:00:05.902Z,4.70
2024-02-14T02:02:39.170Z,4.66
2024-02-14T02:05:11.648Z,4.61
2024-02-14T02:07:44.972Z,4.56
2024-02-14T02:10:17.623Z,4.55
2024-02-14T02:12:49.944Z,4.54
2024-02-14T02:15:21.870Z,4.51
2024-02-14T02:17:54.738Z,4.49
2024-02-14T02:20:29.498Z,4.46
2024-02-14T02:23:01.836Z,4.42
2024-02-14T02:25:33.695Z,4.36
2024-02-14T02:28:06.106Z,4.32
2024-02-14T02:30:38.579Z,4.28
2024-02-14T02:33:11.029Z,4.26
2024-02-14T02:35:46.468Z,4.25
2024-02-14T02:38:18.839Z,4.22
2024-02-14T02:40:50.836Z,4.19
2024-02-14T02:43:23.185Z,4.16
2024-02-14T02:45:55.269Z,4.12
2024-02-14T02:48:27.332Z,4.09
2024-02-14T02:51:00.303Z,4.03
2024-02-14T02:53:32.481Z,3.99
2024-02-14T02:56:04.918Z,3.98
2024-02-14T02:58:37.399Z,3.96
2024-02-14T03:01:13.228Z,3.93
2024-02-14T03:03:45.481Z,3.89
2024-02-14T03:06:17.553Z,3.88
2024-02-14T03:08:50.335Z,3.85
2024-02-14T03:11:22.329Z,3.83
2024-02-14T03:13:54.389Z,3.79
2024-02-14T03:16:26.064Z,3.76
2024-02-14T03:19:00.130Z,3.75
2024-02-14T03:21:33.614Z,3.76
2024-02-14T03:24:06.442Z,3.75
2024-02-14T03:26:39.510Z,3.75
2024-02-14T03:29:11.548Z,3.76
2024-02-14T03:31:45.361Z,3.75
2024-02-14T03:34:17.412Z,3.72
2024-02-14T03:36:49.396Z,3.69
2024-02-14T03:39:21.472Z,3.66
2024-02-14T03:41:54.323Z,3.67
2024-02-14T03:44:26.252Z,3.67
2024-02-14T03:46:58.167Z,3.65
2024-02-14T03:49:28.496Z,3.63
2024-02-14T03:52:02.321Z,3.61
2024-02-14T03:54:34.210Z,3.58
2024-02-14T03:57:08.163Z,3.54
2024-02-14T03:59:43.313Z,3.50
2024-02-14T04:02:15.692Z,3.47
2024-02-14T04:04:47.896Z,3.48
2024-02-14T04:07:19.801Z,3.47
2024-02-14T04:09:51.839Z,3.44
2024-02-14T04:12:22.132Z,3.41
2024-02-14T04:14:54.059Z,3.37
2024-02-14T04:17:25.335Z,3.33
2024-02-14T04:19:57.307Z,3.28
2024-02-14T04:22:29.170Z,3.24
2024-02-14T04:25:01.104Z,3.21
2024-02-14T04:27:31.442Z,3.22
2024-02-14T04:30:05.005Z,3.21
2024-02-14T04:32:37.114Z,3.19
2024-02-14T04:35:10.028Z,3.18
2024-02-14T04:37:44.526Z,3.17
2024-02-14T04:40:17.507Z,3.15
2024-02-14T04:42:50.365Z,3.13
2024-02-14T04:45:22.333Z,3.12
2024-02-14T04:47:54.420Z,3.13
2024-02-14T04:50:25.120Z,3.13
2024-02-14T04:52:56.956Z,3.10
2024-02-14T04:55:30.491Z,3.08
2024-02-14T04:58:02.868Z,3.06
2024-02-14T05:00:35.358Z,3.04
2024-02-14T05:03:07.640Z,3.01
2024-02-14T05:05:40.287Z,2.99
2024-02-14T05:08:12.403Z,2.99
2024-02-14T05:10:44.342Z,2.99
2024-02-14T05:13:17.052Z,2.96
2024-02-14T05:15:48.983Z,2.94
2024-02-14T05:18:21.096Z,2.93
2024-02-14T05:20:53.324Z,2.91
2024-02-14T05:23:25.325Z,2.88
2024-02-14T05:25:57.256Z,2.85
2024-02-14T05:28:29.713Z,2.85
2024-02-14T05:31:04.459Z,2.84
2024-02-14T05:33:37.148Z,2.82
2024-02-14T05:36:10.373Z,2.78
2024-02-14T05:38:42.383Z,2.76
2024-02-14T05:41:14.289Z,2.73
2024-02-14T05:43:46.123Z,2.70
2024-02-14T05:46:18.032Z,2.71
2024-02-14T05:48:50.293Z,2.70
2024-02-14T05:51:22.461Z,2.68
2024-02-14T05:53:54.507Z,2.67
2024-02-14T05:56:24.951Z,2.64
2024-02-14T05:58:56.806Z,2.60
2024-02-14T06:01:30.131Z,2.60
2024-02-14T06:04:02.337Z,2.61
2024-02-14T06:06:34.717Z,2.59
2024-02-14T06:09:10.992Z,2.58
2024-02-14T06:11:43.826Z,2.55
2024-02-14T06:14:15.704Z,2.54
2024-02-14T06:16:47.632Z,2.56
2024-02-14T06:19:19.607Z,2.57
2024-02-14T06:21:50.090Z,2.57
2024-02-14T06:24:22.204Z,2.55
2024-02-14T06:26:54.146Z,2.54
2024-02-14T06:29:26.049Z,2.54
2024-02-14T06:31:58.192Z,2.57
2024-02-14T06:34:30.331Z,2.62
2024-02-14T06:37:02.533Z,2.67
2024-02-14T06:39:34.409Z,2.71
2024-02-14T06:42:07.136Z,2.76
2024-02-14T06:44:39.066Z,2.78
2024-02-14T06:47:11.124Z,2.80
2024-02-14T06:49:41.481Z,2.81
2024-02-14T06:52:13.633Z,2.82
2024-02-14T06:54:43.900Z,2.84
2024-02-14T06:57:15.790Z,2.84
2024-02-14T06:59:47.665Z,2.84
2024-02-14T07:02:19.650Z,2.88
2024-02-14T07:04:52.928Z,2.91
2024-02-14T07:07:25.189Z,2.96
2024-02-14T07:09:57.026Z,3.03
2024-02-14T07:12:31.633Z,3.10
2024-02-14T07:15:05.650Z,3.13
2024-02-14T07:17:37.808Z,3.17
2024-02-14T07:20:11.535Z,3.21
2024-02-14T07:22:43.607Z,3.24
2024-02-14T07:25:15.988Z,3.30
2024-02-14T07:27:50.877Z,3.38
2024-02-14T07:30:22.848Z,3.44
2024-02-14T07:32:55.572Z,3.50
2024-02-14T07:35:27.608Z,3.54
2024-02-14T07:37:59.794Z,3.59
2024-02-14T07:40:32.314Z,3.63
2024-02-14T07:43:04.591Z,3.68
2024-02-14T07:45:36.607Z,3.78
2024-02-14T07:48:09.882Z,3.86
2024-02-14T07:50:41.987Z,3.92
2024-02-14T07:53:13.154Z,3.98
2024-02-14T07:55:44.994Z,4.02
2024-02-14T07:58:16.860Z,4.06
2024-02-14T08:00:48.756Z,4.11
2024-02-14T08:03:19.111Z,4.19
2024-02-14T08:05:51.045Z,4.22
2024-02-14T08:08:26.389Z,4.29
2024-02-14T08:10:58.246Z,4.35
2024-02-14T08:13:30.244Z,4.41
2024-02-14T08:16:02.509Z,4.51
2024-02-14T08:18:32.965Z,4.62
2024-02-14T08:21:05.722Z,4.69
2024-02-14T08:23:40.120Z,4.77
2024-02-14T08:26:12.632Z,4.85
2024-02-14T08:28:44.530Z,4.92
2024-02-14T08:31:15.247Z,4.99
2024-02-14T08:33:47.593Z,5.05
2024-02-14T08:36:20.976Z,5.15
2024-02-14T08:38:53.360Z,5.23
2024-02-14T08:41:24.580Z,5.32
2024-02-14T08:43:56.518Z,5.40
2024-02-14T08:46:26.862Z,5.49
2024-02-14T08:48:58.976Z,5.57
2024-02-14T08:51:31.154Z,5.67
2024-02-14T08:54:01.638Z,5.78
2024-02-14T08:56:34.854Z,5.87
2024-02-14T08:59:08.213Z,6.00
2024-02-14T09:01:40.090Z,6.16
2024-02-14T09:04:10.542Z,6.32
2024-02-14T09:06:42.464Z,6.45
2024-02-14T09:09:16.971Z,6.58
2024-02-14T09:11:48.938Z,6.74
2024-02-14T09:14:19.271Z,6.88
2024-02-14T09:16:51.161Z,7.01
2024-02-14T09:19:22.909Z,7.16
2024-02-14T09:21:55.300Z,7.29
2024-02-14T09:24:27.248Z,7.45
2024-02-14T09:26:59.219Z,7.64
2024-02-14T09:29:31.629Z,7.89
2024-02-14T09:32:04.778Z,8.64
2024-02-14T09:34:37.525Z,10.20
2024-02-14T09:37:10.544Z,11.76
2024-02-14T09:39:44.530Z,12.98
2024-02-14T09:42:19.301Z,13.99
2024-02-14T09:44:55.287Z,14.61
2024-02-14T09:47:28.444Z,14.63
2024-02-14T09:50:01.873Z,14.52
2024-02-14T09:52:35.848Z,14.46
2024-02-14T09:55:11.927Z,14.39
2024-02-14T09:57:46.029Z,14.07
2024-02-14T10:00:19.388Z,13.57
2024-02-14T10:02:51.917Z,13.21
2024-02-14T10:05:24.092Z,13.09
2024-02-14T10:07:58.661Z,13.08
2024-02-14T10:10:31.269Z,13.14
2024-02-14T10:13:05.832Z,13.12
2024-02-14T10:15:37.854Z,13.09
2024-02-14T10:18:11.384Z,13.02
2024-02-14T10:20:46.336Z,12.89
2024-02-14T10:23:18.205Z,12.73
2024-02-14T10:25:51.489Z,12.64
2024-02-14T10:28:30.143Z,12.63
2024-02-14T10:31:12.324Z,12.73
2024-02-14T10:33:45.579Z,13.44
2024-02-14T10:36:20.232Z,14.56
2024-02-14T10:38:54.989Z,15.73
2024-02-14T10:41:32.942Z,16.55
2024-02-14T10:44:06.542Z,17.78
2024-02-14T10:46:42.445Z,19.11
2024-02-14T10:49:17.601Z,20.51
2024-02-14T10:51:54.784Z,21.68
2024-02-14T10:54:28.329Z,23.04
2024-02-14T10:57:06.111Z,24.27
2024-02-14T10:59:41.764Z,23.95
2024-02-14T11:02:14.876Z,24.43
2024-02-14T11:04:48.044Z,24.32
2024-02-14T11:07:24.206Z,24.56
2024-02-14T11:10:09.063Z,24.60
2024-02-14T11:12:42.868Z,24.90
2024-02-14T11:15:18.865Z,24.79
2024-02-14T11:17:53.594Z,24.69
2024-02-14T11:20:37.030Z,24.30
2024-02-14T11:23:12.886Z,23.95
2024-02-14T11:25:48.817Z,23.70
2024-02-14T11:28:22.070Z,23.83
2024-02-14T11:30:56.201Z,24.02
2024-02-14T11:33:28.344Z,24.61
2024-02-14T11:36:00.651Z,24.88
2024-02-14T11:38:32.923Z,25.08
2024-02-14T11:41:06.951Z,25.24
2024-02-14T11:43:40.994Z,25.45
2024-02-14T11:46:13.470Z,25.50
2024-02-14T11:48:48.605Z,25.34
2024-02-14T11:51:21.825Z,25.75
2024-02-14T11:53:53.995Z,26.40
2024-02-14T11:56:27.325Z,26.50
2024-02-14T11:58:59.980Z,26.43
2024-02-14T12:01:33.063Z,26.78
2024-02-14T12:04:08.322Z,27.04
2024-02-14T12:06:43.064Z,27.22
2024-02-14T12:09:15.602Z,26.96
2024-02-14T12:11:48.758Z,25.97
2024-02-14T12:14:26.183Z,24.79
2024-02-14T12:17:04.176Z,23.73
2024-02-14T12:19:39.546Z,23.35
2024-02-14T12:22:19.383Z,23.43
2024-02-14T12:24:53.716Z,23.66
2024-02-14T12:27:25.607Z,23.79
2024-02-14T12:29:57.572Z,23.83
2024-02-14T12:32:29.548Z,23.86
2024-02-14T12:35:02.306Z,23.67
2024-02-14T12:37:34.291Z,23.26
2024-02-14T12:40:08.139Z,22.57
2024-02-14T12:42:40.067Z,21.95
2024-02-14T12:45:14.658Z,21.43
2024-02-14T12:47:48.098Z,21.17
2024-02-14T12:50:21.830Z,21.02
2024-02-14T12:52:53.726Z,20.80
2024-02-14T12:55:26.768Z,20.44
2024-02-14T12:57:59.395Z,19.82
2024-02-14T13:00:33.038Z,19.24
2024-02-14T13:03:05.855Z,18.93
2024-02-14T13:05:38.970Z,18.64
2024-02-14T13:08:12.580Z,18.22
2024-02-14T13:10:44.761Z,17.85
2024-02-14T13:13:17.059Z,17.59
2024-02-14T13:15:49.017Z,17.18
2024-02-14T13:18:21.451Z,16.75
2024-02-14T13:20:58.891Z,16.40
2024-02-14T13:23:31.085Z,16.21
2024-02-14T13:26:05.315Z,16.02
2024-02-14T13:28:37.715Z,15.72
2024-02-14T13:31:10.521Z,15.50
2024-02-14T13:33:42.567Z,15.38
2024-02-14T13:36:18.340Z,15.27
2024-02-14T13:38:50.582Z,15.13
2024-02-14T13:41:23.042Z,15.06
2024-02-14T13:43:54.930Z,15.02
2024-02-14T13:46:27.916Z,14.91
2024-02-14T13:48:59.843Z,14.80
2024-02-14T13:51:31.988Z,14.77
2024-02-14T13:54:03.870Z,14.81
2024-02-14T13:56:35.843Z,14.86
2024-02-14T13:59:07.760Z,14.77
2024-02-14T14:01:40.309Z,14.70
2024-02-14T14:04:12.965Z,14.70
2024-02-14T14:06:45.067Z,14.75
2024-02-14T14:09:17.215Z,14.71
2024-02-14T14:11:51.420Z,14.44
2024-02-14T14:14:23.308Z,14.17
2024-02-14T14:16:55.318Z,13.91
2024-02-14T14:19:27.596Z,13.67
2024-02-14T14:22:00.106Z,13.46
2024-02-14T14:24:32.985Z,13.35
2024-02-14T14:27:05.111Z,13.28
2024-02-14T14:29:37.015Z,13.22
2024-02-14T14:32:10.521Z,13.12
2024-02-14T14:34:42.502Z,12.99
2024-02-14T14:37:14.475Z,12.83
2024-02-14T14:39:46.338Z,12.64
2024-02-14T14:42:19.531Z,12.42
2024-02-14T14:44:52.613Z,12.18
2024-02-14T14:47:24.568Z,11.97
2024-02-14T14:49:56.541Z,11.83
2024-02-14T14:52:28.610Z,11.67
2024-02-14T14:55:01.031Z,11.54
2024-02-14T14:57:33.101Z,11.44
2024-02-14T15:00:05.995Z,11.35
2024-02-14T15:02:38.230Z,11.24
2024-02-14T15:05:11.936Z,11.13
2024-02-14T15:07:44.169Z,11.05
2024-02-14T15:10:16.184Z,10.98
2024-02-14T15:12:48.082Z,10.89
2024-02-14T15:15:21.161Z,10.83
2024-02-14T15:17:53.368Z,10.79
2024-02-14T15:20:25.311Z,10.75
2024-02-14T15:22:57.262Z,10.66
2024-02-14T15:25:29.644Z,10.56
2024-02-14T15:28:01.610Z,10.47
2024-02-14T15:30:51.542Z,10.34
2024-02-14T15:33:24.761Z,10.23
2024-02-14T15:35:58.989Z,10.14
2024-02-14T15:38:31.229Z,10.08
2024-02-14T15:41:04.531Z,10.03
2024-02-14T15:43:36.902Z,9.98
2024-02-14T15:46:08.996Z,9.94
2024-02-14T15:48:42.527Z,9.88
2024-02-14T15:51:18.937Z,9.83
2024-02-14T15:53:50.996Z,9.78
2024-02-14T15:56:22.895Z,9.71
2024-02-14T15:58:54.819Z,9.67
2024-02-14T16:01:26.682Z,9.62
2024-02-14T16:03:58.672Z,9.57
2024-02-14T16:06:30.680Z,9.53
2024-02-14T16:09:02.821Z,9.48
2024-02-14T16:11:35.355Z,9.44
2024-02-14T16:14:07.317Z,9.41
2024-02-14T16:16:39.244Z,9.39
2024-02-14T16:19:11.776Z,9.37
2024-02-14T16:21:43.750Z,9.34
2024-02-14T16:24:16.656Z,9.30
2024-02-14T16:26:48.613Z,9.27
2024-02-14T16:29:20.523Z,9.24
2024-02-14T16:31:52.423Z,9.22
2024-02-14T16:34:24.399Z,9.20
2024-02-14T16:36:56.952Z,9.17
2024-02-14T16:39:39.828Z,9.15
2024-02-14T16:42:16.387Z,9.13
2024-02-14T16:44:49.196Z,9.10
2024-02-14T16:47:21.232Z,9.07
2024-02-14T16:49:53.280Z,9.04
2024-02-14T16:52:25.262Z,9.02
2024-02-14T16:54:57.248Z,9.02
2024-02-14T16:57:29.271Z,9.00
2024-02-14T17:00:01.476Z,8.97
2024-02-14T17:02:33.580Z,8.95
2024-02-14T17:05:05.852Z,8.93
2024-02-14T17:07:37.936Z,8.91
2024-02-14T17:10:11.749Z,8.87
2024-02-14T17:12:43.681Z,8.83
2024-02-14T17:15:16.016Z,8.80
2024-02-14T17:17:48.033Z,8.80
2024-02-14T17:20:20.893Z,8.79
2024-02-14T17:22:53.045Z,8.80
2024-02-14T17:25:25.683Z,8.84
2024-02-14T17:27:58.028Z,8.84
2024-02-14T17:30:30.033Z,8.83
2024-02-14T17:33:03.411Z,8.82
2024-02-14T17:35:35.555Z,8.82
2024-02-14T17:38:07.895Z,8.82
2024-02-14T17:40:39.813Z,8.80
2024-02-14T17:43:11.716Z,8.79
2024-02-14T17:45:43.926Z,8.78
2024-02-14T17:48:15.932Z,8.76
2024-02-14T17:50:50.333Z,8.75
2024-02-14T17:53:22.262Z,8.73
2024-02-14T17:55:54.432Z,8.72
2024-02-14T17:58:26.937Z,8.70
2024-02-14T18:00:59.678Z,8.70
2024-02-14T18:03:31.623Z,8.67
2024-02-14T18:06:04.403Z,8.65
2024-02-14T18:08:36.899Z,8.64
2024-02-14T18:11:09.088Z,8.63
2024-02-14T18:13:41.102Z,8.61
2024-02-14T18:16:13.021Z,8.59
2024-02-14T18:18:47.046Z,8.54
2024-02-14T18:21:20.856Z,8.53
2024-02-14T18:23:52.720Z,8.51
2024-02-14T18:26:25.144Z,8.48
2024-02-14T18:28:56.972Z,8.45
2024-02-14T18:31:29.498Z,8.43
2024-02-14T18:34:01.591Z,8.40
2024-02-14T18:36:33.619Z,8.38
2024-02-14T18:39:07.434Z,8.35
2024-02-14T18:41:40.739Z,8.33
2024-02-14T18:44:12.581Z,8.31
2024-02-14T18:46:48.168Z,8.30
2024-02-14T18:49:20.329Z,8.30
2024-02-14T18:51:52.553Z,8.28
2024-02-14T18:54:26.028Z,8.27
2024-02-14T18:56:57.982Z,8.25
2024-02-14T18:59:29.836Z,8.22
2024-02-14T19:02:01.730Z,8.20
2024-02-14T19:04:34.451Z,8.17
2024-02-14T19:07:06.768Z,8.16
2024-02-14T19:09:38.611Z,8.14
2024-02-14T19:12:11.092Z,8.13
2024-02-14T19:14:44.537Z,8.12
2024-02-14T19:17:16.538Z,8.11
2024-02-14T19:19:48.497Z,8.11
2024-02-14T19:22:20.526Z,8.12
2024-02-14T19:24:52.455Z,8.10
2024-02-14T19:27:24.429Z,8.09
2024-02-14T19:29:56.302Z,8.09
2024-02-14T19:32:28.438Z,8.09
2024-02-14T19:35:01.269Z,8.09
2024-02-14T19:37:33.367Z,8.08
2024-02-14T19:40:07.752Z,8.07
2024-02-14T19:42:40.038Z,8.05
2024-02-14T19:45:13.519Z,8.04
2024-02-14T19:47:47.331Z,8.02
2024-02-14T19:50:20.920Z,8.02
2024-02-14T19:52:53.323Z,8.01
2024-02-14T19:55:25.455Z,7.99
2024-02-14T19:57:57.298Z,7.98
2024-02-14T20:00:33.128Z,7.98
2024-02-14T20:03:05.332Z,7.97
2024-02-14T20:05:39.304Z,7.95
2024-02-14T20:08:12.951Z,7.94
2024-02-14T20:10:44.947Z,7.93
2024-02-14T20:13:16.949Z,7.91
2024-02-14T20:15:49.604Z,7.91
2024-02-14T20:18:21.679Z,7.89
2024-02-14T20:20:53.708Z,7.89
2024-02-14T20:23:27.365Z,7.90
2024-02-14T20:25:59.481Z,7.89
2024-02-14T20:28:31.348Z,7.88
2024-02-14T20:31:03.295Z,7.86
2024-02-14T20:33:35.353Z,7.85
2024-02-14T20:36:09.647Z,7.84
2024-02-14T20:38:41.707Z,7.82
2024-02-14T20:41:16.948Z,7.81
2024-02-14T20:43:48.891Z,7.81
2024-02-14T20:46:21.422Z,7.80
2024-02-14T20:48:54.827Z,7.79
2024-02-14T20:51:29.369Z,7.79
2024-02-14T20:54:01.339Z,7.80
2024-02-14T20:56:33.213Z,7.79
2024-02-14T20:59:11.070Z,7.79
2024-02-14T21:01:48.208Z,7.78
2024-02-14T21:04:20.176Z,7.77
2024-02-14T21:06:52.182Z,7.79
2024-02-14T21:09:24.097Z,7.80
2024-02-14T21:12:30.182Z,7.79
2024-02-14T21:15:02.520Z,7.78
2024-02-14T21:17:34.679Z,7.78
2024-02-14T21:20:08.123Z,7.79
2024-02-14T21:22:40.131Z,7.79
2024-02-14T21:25:13.734Z,7.79
2024-02-14T21:27:46.862Z,7.78
2024-02-14T21:30:19.315Z,7.78
2024-02-14T21:32:51.296Z,7.78
2024-02-14T21:35:23.764Z,7.78
2024-02-14T21:37:56.209Z,7.77
2024-02-14T21:40:28.138Z,7.76
2024-02-14T21:43:00.136Z,7.75
2024-02-14T21:45:32.054Z,7.74
2024-02-14T21:48:04.707Z,7.72
2024-02-14T21:50:37.099Z,7.71
2024-02-14T21:53:08.919Z,7.70
2024-02-14T21:56:00.876Z,7.68
2024-02-14T21:58:33.128Z,7.67
2024-02-14T22:01:05.252Z,7.70
2024-02-14T22:03:37.359Z,7.73
2024-02-14T22:06:09.704Z,7.73
2024-02-14T22:08:41.795Z,7.74
2024-02-14T22:11:14.825Z,7.74
2024-02-14T22:13:47.686Z,7.73
2024-02-14T22:16:21.193Z,7.72
2024-02-14T22:18:54.061Z,7.70
2024-02-14T22:21:26.493Z,7.68
2024-02-14T22:23:58.624Z,7.68
2024-02-14T22:26:30.844Z,7.67
2024-02-14T22:29:03.759Z,7.66
2024-02-14T22:31:37.167Z,7.65
2024-02-14T22:34:11.729Z,7.64
2024-02-14T22:36:43.870Z,7.62
2024-02-14T22:39:16.547Z,7.64
2024-02-14T22:41:50.380Z,7.68
2024-02-14T22:44:22.694Z,7.71
2024-02-14T22:46:54.667Z,7.71
2024-02-14T22:49:26.666Z,7.71
2024-02-14T22:51:59.403Z,7.71
2024-02-14T22:54:31.329Z,7.72
2024-02-14T22:57:04.564Z,7.72
2024-02-14T22:59:36.931Z,7.70
2024-02-14T23:02:09.864Z,7.68
2024-02-14T23:04:41.849Z,7.65
2024-02-14T23:07:13.818Z,7.65
2024-02-14T23:09:45.945Z,7.64
2024-02-14T23:12:18.825Z,7.66
2024-02-14T23:14:50.849Z,7.68
2024-02-14T23:17:22.844Z,7.67
2024-02-14T23:19:54.808Z,7.67
2024-02-14T23:22:26.825Z,7.67
2024-02-14T23:24:58.745Z,7.66
2024-02-14T23:27:30.706Z,7.66
2024-02-14T23:30:02.731Z,7.67
2024-02-14T23:32:34.831Z,7.67
2024-02-14T23:35:10.838Z,7.68
2024-02-14T23:37:44.872Z,7.73
2024-02-14T23:40:17.180Z,7.76
2024-02-14T23:42:49.141Z,7.77
2024-02-14T23:45:21.132Z,7.79
2024-02-14T23:47:54.488Z,7.81
2024-02-14T23:50:28.601Z,7.81
2024-02-14T23:53:00.920Z,7.81
2024-02-14T23:55:32.777Z,7.81
2024-02-14T23:58:05.177Z,7.80
